Time;durP1;ratioP1;P1;durP2;ratioP2;P2;SDS_P1;SDS_P2;PMS_P1;PMS_P2;Temp;Humidity;BMP_temperature;BMP_pressure;BME280_temperature;BME280_humidity;BME280_pressure;Samples;Min_cycle;Max_cycle;Signal;HPM_P1;HPM_P2
2021/08/19 00:01:12;;;;;;;4.57;3.17;;;;;;;29.55;43.08;100672.05;127318;1093;61698;-85
2021/08/19 00:03:44;;;;;;;4.40;3.00;;;;;;;29.55;43.21;100675.64;127330;1092;64240;-86
2021/08/19 00:06:19;;;;;;;4.57;3.00;;;;;;;29.54;43.17;100679.38;127325;1092;64182;-86
2021/08/19 00:08:45;;;;;;;4.45;3.05;;;;;;;29.54;43.37;100692.13;127298;1093;64138;-85
2021/08/19 00:11:12;;;;;;;4.83;3.20;;;;;;;29.54;43.58;100686.69;127303;1093;64288;-86
2021/08/19 00:13:38;;;;;;;4.70;2.80;;;;;;;29.54;43.70;100684.81;127312;1093;64205;-85
2021/08/19 00:16:09;;;;;;;4.37;2.80;;;;;;;29.54;43.43;100689.41;127303;1093;64144;-85
2021/08/19 00:18:39;;;;;;;5.40;2.93;;;;;;;29.53;43.47;100690.42;127312;1092;64150;-86
2021/08/19 00:21:06;;;;;;;4.80;3.00;;;;;;;29.52;43.45;100689.55;127331;1093;64736;-85
2021/08/19 00:23:35;;;;;;;4.00;2.80;;;;;;;29.52;43.41;100686.83;127359;1093;64170;-85
2021/08/19 00:26:02;;;;;;;;;;;;;;;29.52;43.79;100683.28;127358;1093;64140;-85
2021/08/19 00:28:28;;;;;;;4.10;2.90;;;;;;;29.50;43.38;100675.29;127284;1093;64137;-85
2021/08/19 00:30:54;;;;;;;4.43;2.97;;;;;;;29.50;43.36;100672.58;127314;1093;64182;-86
2021/08/19 00:33:21;;;;;;;4.17;2.80;;;;;;;29.50;43.43;100661.70;127341;1093;64307;-85
2021/08/19 00:35:47;;;;;;;4.90;2.83;;;;;;;29.50;43.34;100658.98;127336;1093;64162;-86
2021/08/19 00:38:13;;;;;;;4.93;2.90;;;;;;;29.50;43.27;100686.17;127329;1093;64339;-85
2021/08/19 00:40:39;;;;;;;6.60;2.97;;;;;;;29.50;43.17;100683.45;127335;1093;64347;-85
2021/08/19 00:43:07;;;;;;;4.17;2.90;;;;;;;29.50;43.53;100686.17;127287;1093;64139;-85
2021/08/19 00:45:38;;;;;;;4.33;2.77;;;;;;;29.50;43.34;100693.48;127295;1093;64137;-85
2021/08/19 00:48:05;;;;;;;5.00;2.80;;;;;;;29.50;43.71;100693.48;127289;1093;64176;-84
2021/08/19 00:50:31;;;;;;;4.77;2.80;;;;;;;29.50;43.79;100688.05;127316;1093;64243;-85
2021/08/19 00:52:58;;;;;;;4.40;2.73;;;;;;;29.50;43.59;100693.48;127311;1093;64037;-85
2021/08/19 00:55:24;;;;;;;5.53;3.00;;;;;;;29.50;43.53;100693.48;127327;1092;64310;-85
2021/08/19 00:57:50;;;;;;;4.63;3.00;;;;;;;29.50;43.57;100694.33;127303;1093;64137;-85
2021/08/19 01:00:17;;;;;;;4.90;3.00;;;;;;;29.50;43.79;100690.77;127306;1093;64316;-85
2021/08/19 01:02:50;;;;;;;4.80;2.80;;;;;;;29.50;43.87;100691.61;127316;1093;64217;-85
2021/08/19 01:05:19;;;;;;;4.20;2.50;;;;;;;29.49;43.45;100692.63;127364;1093;64287;-86
2021/08/19 01:07:46;;;;;;;3.83;2.60;;;;;;;29.49;43.67;100692.63;127328;1093;64106;-85
2021/08/19 01:10:12;;;;;;;4.43;2.57;;;;;;;29.49;43.64;100697.22;127322;1093;64138;-85
2021/08/19 01:12:40;;;;;;;4.03;2.63;;;;;;;29.48;43.90;100699.07;127336;1093;64349;-86
2021/08/19 01:15:10;;;;;;;3.90;2.80;;;;;;;29.49;43.49;100700.78;127329;1093;64224;-86
2021/08/19 01:17:59;;;;;;;4.33;2.73;;;;;;;29.49;43.57;100703.50;127314;1092;64636;-85
2021/08/19 01:20:28;;;;;;;4.50;2.77;;;;;;;29.48;43.94;100704.51;127143;1095;64140;-86
2021/08/19 01:22:55;;;;;;;4.33;2.70;;;;;;;29.49;43.70;100702.66;127173;1096;64223;-85
2021/08/19 01:25:21;;;;;;;4.40;2.60;;;;;;;29.47;43.57;100705.55;127188;1096;62929;-86
2021/08/19 01:27:48;;;;;;;3.67;2.43;;;;;;;29.49;43.50;100703.50;127161;1095;64131;-86
2021/08/19 01:30:15;;;;;;;4.60;2.80;;;;;;;29.48;43.74;100707.23;127130;1096;64378;-85
2021/08/19 01:32:41;;;;;;;4.20;2.50;;;;;;;29.49;43.80;100708.09;127207;1096;64405;-86
2021/08/19 01:35:08;;;;;;;3.97;2.60;;;;;;;29.48;43.69;100712.67;127182;1096;64168;-86
2021/08/19 01:37:37;;;;;;;4.97;2.60;;;;;;;29.47;43.86;100701.97;127164;1095;64316;-85
2021/08/19 01:40:04;;;;;;;3.90;2.50;;;;;;;29.47;43.63;100710.12;127187;1096;64291;-85
2021/08/19 01:42:30;;;;;;;6.25;2.60;;;;;;;29.48;44.15;100701.79;127186;1096;64252;-85
2021/08/19 01:44:57;;;;;;;4.87;2.63;;;;;;;29.47;43.70;100705.55;127180;1097;64166;-85
2021/08/19 01:47:23;;;;;;;4.63;2.57;;;;;;;29.47;43.86;100704.68;127210;1097;64144;-86
2021/08/19 01:49:49;;;;;;;4.30;2.67;;;;;;;29.47;43.82;100705.55;127197;1096;64137;-85
2021/08/19 01:52:19;;;;;;;3.97;2.43;;;;;;;29.46;43.70;100701.13;127205;1095;64211;-86
2021/08/19 01:54:45;;;;;;;4.17;2.50;;;;;;;29.46;44.13;100706.56;127168;1095;64141;-86
2021/08/19 01:57:12;;;;;;;3.90;2.33;;;;;;;29.46;43.74;100700.25;127176;1093;64220;-85
2021/08/19 01:59:42;;;;;;;4.20;2.50;;;;;;;29.45;43.95;100693.98;127253;1092;64259;-85
2021/08/19 02:02:08;;;;;;;4.63;2.53;;;;;;;29.46;44.20;100703.84;127326;1092;64169;-86
2021/08/19 02:04:35;;;;;;;3.60;2.40;;;;;;;29.46;43.70;100702.97;127284;1093;64137;-85
2021/08/19 02:07:01;;;;;;;4.40;2.53;;;;;;;29.46;43.64;100706.56;127301;1093;64174;-85
2021/08/19 02:09:27;;;;;;;4.50;2.43;;;;;;;29.46;44.13;100700.25;127313;1093;64204;-85
2021/08/19 02:11:53;;;;;;;4.03;2.47;;;;;;;29.46;44.01;100708.41;127354;1093;63920;-86
2021/08/19 02:14:20;;;;;;;3.80;2.30;;;;;;;29.46;44.05;100708.41;127269;1093;64138;-85
2021/08/19 02:16:46;;;;;;;3.43;2.20;;;;;;;29.45;43.93;100707.58;127306;1093;64323;-86
2021/08/19 02:19:13;;;;;;;4.43;2.47;;;;;;;29.45;43.83;100704.02;127268;1092;64134;-87
2021/08/19 02:21:39;;;;;;;3.90;2.20;;;;;;;29.44;44.06;100705.87;127377;1093;64129;-85
2021/08/19 02:24:06;;;;;;;4.37;2.60;;;;;;;29.44;43.98;100705.87;127331;1093;64285;-85
2021/08/19 02:26:32;;;;;;;4.13;2.27;;;;;;;29.45;44.28;100706.73;127292;1093;64137;-85
2021/08/19 02:29:02;;;;;;;3.47;2.47;;;;;;;29.45;43.89;100712.17;127318;1092;65367;-85
2021/08/19 02:31:28;;;;;;;4.13;2.67;;;;;;;29.44;43.85;100716.74;127335;1093;64227;-85
2021/08/19 02:33:54;;;;;;;3.77;2.27;;;;;;;29.44;44.14;100716.74;127306;1093;64134;-86
2021/08/19 02:36:20;;;;;;;5.25;2.35;;;;;;;29.44;43.85;100716.74;127294;1093;64185;-85
2021/08/19 02:38:53;;;;;;;3.97;2.10;;;;;;;29.44;44.48;100719.46;127294;1093;64617;-86
2021/08/19 02:41:19;;;;;;;4.03;2.53;;;;;;;29.43;44.34;100717.78;127312;1092;64214;-85
2021/08/19 02:43:45;;;;;;;4.05;2.30;;;;;;;29.43;43.92;100715.91;127270;1093;64311;-85
2021/08/19 02:46:12;;;;;;;4.03;2.30;;;;;;;29.44;43.93;100716.74;127303;1093;64140;-85
2021/08/19 02:48:39;;;;;;;3.70;2.40;;;;;;;29.43;44.36;100724.06;127325;1093;64133;-85
2021/08/19 02:51:05;;;;;;;3.37;2.20;;;;;;;29.43;44.26;100720.50;127307;1093;64346;-85
2021/08/19 02:53:31;;;;;;;4.10;2.30;;;;;;;29.43;43.95;100717.78;127322;1093;64623;-85
2021/08/19 02:55:57;;;;;;;4.13;2.40;;;;;;;29.42;43.94;100727.80;127306;1092;64138;-87
2021/08/19 02:58:26;;;;;;;3.87;2.10;;;;;;;29.42;44.15;100730.52;127311;1093;64233;-86
2021/08/19 03:00:52;;;;;;;;;;;;;;;29.41;44.37;100728.80;127369;1092;64218;-85
2021/08/19 03:03:19;;;;;;;3.37;2.00;;;;;;;29.41;44.21;100730.69;127355;1093;64136;-85
2021/08/19 03:05:45;;;;;;;3.50;2.20;;;;;;;29.41;44.15;100742.39;127329;1092;64154;-85
2021/08/19 03:08:11;;;;;;;3.75;2.20;;;;;;;29.41;44.27;100736.13;127320;1093;63200;-85
2021/08/19 03:10:38;;;;;;;4.13;2.20;;;;;;;29.40;44.31;100748.88;127321;1093;64146;-85
2021/08/19 03:13:05;;;;;;;3.80;2.30;;;;;;;29.40;44.22;100743.44;127298;1093;64240;-85
2021/08/19 03:15:31;;;;;;;3.30;2.13;;;;;;;29.40;44.45;100740.72;127277;1093;64316;-85
2021/08/19 03:17:57;;;;;;;3.43;2.03;;;;;;;29.41;44.32;100745.12;127321;1093;64138;-85
2021/08/19 03:20:24;;;;;;;3.53;2.00;;;;;;;29.41;44.12;100750.55;127390;1093;64147;-85
2021/08/19 03:22:51;;;;;;;3.60;2.27;;;;;;;29.41;44.05;100749.72;127353;1092;64109;-85
2021/08/19 03:25:17;;;;;;;3.90;2.00;;;;;;;29.41;44.31;100755.99;127416;1093;64227;-84
2021/08/19 03:27:44;;;;;;;3.17;2.00;;;;;;;29.41;44.30;100753.27;127458;1093;64023;-84
2021/08/19 03:30:12;;;;;;;2.80;1.90;;;;;;;29.41;44.21;100752.44;127439;1093;64324;-84
2021/08/19 03:32:40;;;;;;;3.93;2.20;;;;;;;29.42;44.24;100756.86;127364;1092;64221;-85
2021/08/19 03:35:11;;;;;;;4.53;2.03;;;;;;;29.42;44.09;100759.58;127318;1093;64278;-85
2021/08/19 03:37:37;;;;;;;4.27;2.20;;;;;;;29.42;44.19;100756.86;127335;1093;63958;-85
2021/08/19 03:40:10;;;;;;;3.35;2.00;;;;;;;29.42;44.17;100760.42;127325;1092;64218;-85
2021/08/19 03:42:37;;;;;;;3.90;2.20;;;;;;;29.43;44.13;100762.13;127326;1093;64189;-85
2021/08/19 03:45:06;;;;;;;3.80;2.10;;;;;;;29.42;44.29;100768.58;127289;1093;64107;-85
2021/08/19 03:47:32;;;;;;;3.38;2.03;;;;;;;29.42;44.14;100768.58;127298;1093;64143;-85
2021/08/19 03:50:23;;;;;;;3.33;2.00;;;;;;;29.41;44.22;100772.31;127327;1093;64131;-86
2021/08/19 03:52:50;;;;;;;3.77;1.97;;;;;;;29.41;44.12;100768.75;127183;1096;64145;-85
2021/08/19 03:55:17;;;;;;;2.83;1.97;;;;;;;29.41;44.46;100776.91;127162;1096;64224;-85
2021/08/19 03:57:44;;;;;;;2.77;1.80;;;;;;;29.41;44.30;100775.03;127188;1095;64114;-85
2021/08/19 04:00:11;;;;;;;3.00;2.00;;;;;;;29.41;44.10;100779.63;127145;1095;64189;-85
2021/08/19 04:02:37;;;;;;;3.43;2.10;;;;;;;29.41;44.25;100783.19;127169;1095;64312;-85
2021/08/19 04:05:03;;;;;;;3.47;2.03;;;;;;;29.40;44.17;100789.66;127143;1095;64217;-85
2021/08/19 04:07:30;;;;;;;3.45;2.05;;;;;;;29.41;44.22;100787.78;127117;1097;64302;-85
2021/08/19 04:09:57;;;;;;;3.37;2.00;;;;;;;29.41;44.35;100791.34;127196;1096;64105;-85
2021/08/19 04:12:23;;;;;;;3.33;2.10;;;;;;;29.41;44.61;100783.19;127180;1097;64539;-85
2021/08/19 04:14:50;;;;;;;3.00;1.90;;;;;;;29.40;44.43;100789.66;127124;1095;64138;-85
2021/08/19 04:17:18;;;;;;;3.37;1.90;;;;;;;29.41;44.51;100793.22;127188;1095;64243;-85
2021/08/19 04:19:44;;;;;;;3.50;2.05;;;;;;;29.40;44.17;100792.38;127190;1096;64105;-85
2021/08/19 04:22:11;;;;;;;3.27;1.90;;;;;;;29.41;44.62;100795.94;127188;1096;64487;-85
2021/08/19 04:24:38;;;;;;;3.20;2.10;;;;;;;29.41;44.46;100790.50;127164;1096;64144;-85
2021/08/19 04:27:04;;;;;;;3.73;1.80;;;;;;;29.41;44.11;100795.94;127172;1095;64391;-83
2021/08/19 04:29:33;;;;;;;3.43;2.03;;;;;;;29.40;44.23;100789.66;127201;1093;64160;-85
2021/08/19 04:32:00;;;;;;;;;;;;;;;29.39;44.33;100795.24;127342;1092;64224;-86
2021/08/19 04:34:27;;;;;;;3.07;1.83;;;;;;;29.38;44.51;100797.13;127352;1092;64138;-85
2021/08/19 04:36:54;;;;;;;4.07;1.97;;;;;;;29.39;44.48;100803.39;127287;1093;64348;-85
2021/08/19 04:39:22;;;;;;;4.10;1.90;;;;;;;29.39;44.25;100815.14;127336;1092;64182;-85
2021/08/19 04:41:51;;;;;;;3.23;2.03;;;;;;;29.40;44.12;100821.42;127288;1091;64137;-84
2021/08/19 04:44:18;;;;;;;3.10;1.70;;;;;;;29.39;44.41;100817.00;127324;1093;64138;-84
2021/08/19 04:46:44;;;;;;;4.23;1.90;;;;;;;29.39;44.11;100819.71;127301;1093;64112;-85
2021/08/19 04:49:11;;;;;;;3.30;1.90;;;;;;;29.39;43.98;100819.71;127305;1093;64243;-85
2021/08/19 04:51:38;;;;;;;3.00;1.70;;;;;;;29.38;43.98;100818.03;127313;1093;64107;-85
2021/08/19 04:54:05;;;;;;;3.27;1.77;;;;;;;29.38;44.09;100821.59;127309;1093;64134;-85
2021/08/19 04:56:36;;;;;;;4.53;1.70;;;;;;;29.38;43.95;100832.47;127320;1093;64291;-85
2021/08/19 04:59:06;;;;;;;3.00;1.70;;;;;;;29.38;44.14;100826.19;127314;1093;64349;-85
2021/08/19 05:01:32;;;;;;;3.00;1.87;;;;;;;29.38;44.09;100826.19;127319;1093;64223;-85
2021/08/19 05:03:59;;;;;;;2.10;1.70;;;;;;;29.37;43.94;100832.64;127287;1093;64105;-85
2021/08/19 05:06:27;;;;;;;3.17;1.73;;;;;;;29.37;43.81;100838.08;127302;1093;64186;-85
2021/08/19 05:08:54;;;;;;;3.57;2.00;;;;;;;29.35;43.92;100835.53;127302;1093;64317;-86
2021/08/19 05:11:21;;;;;;;3.05;1.70;;;;;;;29.34;43.56;100838.41;127329;1091;64163;-85
2021/08/19 05:13:48;;;;;;;3.87;1.70;;;;;;;29.33;43.43;100850.30;127306;1093;62810;-84
2021/08/19 05:16:14;;;;;;;2.40;1.60;;;;;;;29.33;43.21;100850.30;127317;1093;64313;-85
2021/08/19 05:18:44;;;;;;;3.90;1.83;;;;;;;29.32;43.45;100854.86;127284;1093;64200;-84
2021/08/19 05:21:14;;;;;;;3.03;1.73;;;;;;;29.31;43.35;100853.19;127209;1095;64163;-86
2021/08/19 05:23:40;;;;;;;3.00;1.77;;;;;;;29.33;43.39;100856.58;127227;1096;64127;-84
2021/08/19 05:26:09;;;;;;;3.83;1.60;;;;;;;29.31;42.91;100853.19;127232;1096;64264;-85
2021/08/19 05:28:35;;;;;;;;;;;;;;;29.30;42.80;100856.91;127281;1096;64105;-84
2021/08/19 05:31:01;;;;;;;4.17;1.90;;;;;;;29.30;42.93;100856.07;127231;1096;64243;-85
2021/08/19 05:33:27;;;;;;;2.70;1.63;;;;;;;29.29;42.87;100852.48;127257;1096;64568;-85
2021/08/19 05:35:54;;;;;;;2.33;1.60;;;;;;;29.27;42.79;100849.09;127211;1096;64690;-85
2021/08/19 05:38:20;;;;;;;4.50;2.07;;;;;;;29.28;42.42;100855.37;127291;1095;64144;-85
2021/08/19 05:40:47;;;;;;;3.20;1.70;;;;;;;29.27;42.62;100854.53;127237;1096;64130;-85
2021/08/19 05:43:13;;;;;;;2.67;1.70;;;;;;;29.26;42.43;100855.53;127164;1095;64192;-86
2021/08/19 05:45:43;;;;;;;3.17;1.60;;;;;;;29.20;41.79;100856.14;127262;1096;64298;-85
2021/08/19 05:48:13;;;;;;;2.53;1.50;;;;;;;29.09;41.67;100865.43;127230;1094;64214;-85
2021/08/19 05:50:39;;;;;;;6.83;1.90;;;;;;;28.99;41.63;100864.69;127240;1095;63961;-85
2021/08/19 05:53:07;;;;;;;6.60;1.80;;;;;;;28.89;41.27;100860.20;127153;1093;64140;-85
2021/08/19 05:55:33;;;;;;;3.30;1.90;;;;;;;28.79;41.40;100864.92;127253;1093;64134;-85
2021/08/19 05:58:02;;;;;;;3.58;1.55;;;;;;;28.69;41.45;100867.72;127305;1093;64214;-85
2021/08/19 06:00:35;;;;;;;4.80;2.00;;;;;;;28.61;41.26;100859.48;127279;1093;64288;-86
2021/08/19 06:03:09;;;;;;;3.33;1.70;;;;;;;28.55;40.79;100860.13;127312;1093;64140;-85
2021/08/19 06:05:37;;;;;;;3.30;1.70;;;;;;;28.49;41.21;100861.59;127276;1093;64291;-85
2021/08/19 06:08:04;;;;;;;;;;;;;;;28.42;41.07;100858.66;127355;1093;64108;-85
2021/08/19 06:10:33;;;;;;;3.00;1.90;;;;;;;28.38;41.14;100851.83;127379;1092;64141;-85
2021/08/19 06:12:59;;;;;;;4.30;1.80;;;;;;;28.39;40.69;100861.69;127249;1093;64141;-84
2021/08/19 06:15:25;;;;;;;3.07;1.90;;;;;;;28.39;40.91;100864.41;127302;1093;64233;-85
2021/08/19 06:17:51;;;;;;;4.07;1.97;;;;;;;28.43;41.12;100856.81;127287;1092;64218;-85
2021/08/19 06:20:19;;;;;;;5.13;1.90;;;;;;;28.49;40.77;100858.03;127298;1093;64157;-84
2021/08/19 06:22:46;;;;;;;3.60;1.70;;;;;;;28.53;40.96;100863.02;127272;1093;64137;-84
2021/08/19 06:25:26;;;;;;;2.83;1.70;;;;;;;28.60;41.01;100871.38;127299;1093;64270;-86
2021/08/19 06:27:53;;;;;;;4.43;2.00;;;;;;;28.64;40.76;100861.94;127295;1093;64298;-86
2021/08/19 06:30:32;;;;;;;3.57;2.00;;;;;;;28.68;40.73;100867.88;127334;1092;64102;-85
2021/08/19 06:33:02;;;;;;;3.88;2.00;;;;;;;28.71;40.99;100875.73;127311;1093;61846;-85
2021/08/19 06:35:28;;;;;;;3.47;1.90;;;;;;;28.75;40.80;100866.25;127309;1093;64076;-85
2021/08/19 06:37:55;;;;;;;4.33;2.20;;;;;;;28.78;40.65;100875.95;127341;1093;64156;-85
2021/08/19 06:40:22;;;;;;;3.97;1.90;;;;;;;28.79;40.80;100878.50;127293;1093;64156;-84
2021/08/19 06:42:48;;;;;;;4.50;2.00;;;;;;;28.81;40.63;100862.88;127262;1093;64297;-85
2021/08/19 06:45:15;;;;;;;4.17;2.20;;;;;;;28.85;40.72;100868.85;127263;1093;64291;-85
2021/08/19 06:47:41;;;;;;;3.10;1.80;;;;;;;28.86;40.46;100857.82;127312;1093;64328;-85
2021/08/19 06:50:08;;;;;;;3.40;1.80;;;;;;;28.89;40.31;100865.64;127305;1093;64137;-85
2021/08/19 06:52:41;;;;;;;3.40;1.90;;;;;;;28.92;40.25;100875.34;127280;1093;64208;-86
2021/08/19 06:55:10;;;;;;;3.93;2.00;;;;;;;28.95;40.39;100874.17;127298;1093;64237;-85
2021/08/19 06:57:39;;;;;;;3.93;1.83;;;;;;;28.96;40.01;100873.16;127298;1093;64218;-85
2021/08/19 07:00:07;;;;;;;4.90;1.90;;;;;;;29.00;40.43;100878.14;127253;1093;64109;-85
2021/08/19 07:02:34;;;;;;;3.60;1.97;;;;;;;29.01;40.48;100873.54;127250;1092;64160;-85
2021/08/19 07:05:01;;;;;;;5.37;1.90;;;;;;;29.01;40.19;100866.23;127295;1093;64105;-85
2021/08/19 07:07:30;;;;;;;2.70;1.73;;;;;;;29.02;40.04;100876.09;127287;1091;64227;-85
2021/08/19 07:10:04;;;;;;;3.40;2.07;;;;;;;29.03;40.00;100869.66;127320;1093;64160;-85
2021/08/19 07:12:32;;;;;;;4.00;1.90;;;;;;;29.05;39.98;100870.33;127271;1093;64102;-86
2021/08/19 07:14:58;;;;;;;3.40;1.90;;;;;;;29.07;40.07;100875.63;127255;1093;64105;-84
2021/08/19 07:17:25;;;;;;;3.93;1.80;;;;;;;29.07;39.70;100872.91;127326;1093;64100;-84
2021/08/19 07:19:51;;;;;;;3.93;1.90;;;;;;;29.08;39.65;100870.03;127368;1093;64240;-84
2021/08/19 07:22:18;;;;;;;5.57;2.00;;;;;;;29.10;39.63;100870.70;127409;1093;65179;-83
2021/08/19 07:24:45;;;;;;;3.63;1.87;;;;;;;29.12;39.99;100875.13;127373;1093;64214;-83
2021/08/19 07:27:11;;;;;;;3.10;1.97;;;;;;;29.13;39.93;100874.13;127469;1093;64264;-85
2021/08/19 07:29:38;;;;;;;3.67;1.97;;;;;;;29.15;39.63;100872.95;127539;1092;64168;-83
2021/08/19 07:32:04;;;;;;;5.60;2.30;;;;;;;29.14;39.58;100878.55;127336;1093;64213;-86
2021/08/19 07:34:30;;;;;;;3.53;1.97;;;;;;;29.11;39.20;100885.16;127244;1093;64314;-84
2021/08/19 07:36:57;;;;;;;5.63;1.97;;;;;;;29.10;38.91;100878.02;127282;1093;64623;-85
2021/08/19 07:39:23;;;;;;;3.90;2.00;;;;;;;29.12;39.05;100880.56;127283;1093;64163;-85
2021/08/19 07:41:49;;;;;;;3.60;2.10;;;;;;;29.14;39.23;100876.67;127248;1093;64128;-85
2021/08/19 07:44:21;;;;;;;3.73;2.00;;;;;;;29.15;38.93;100877.52;127243;1093;64141;-85
2021/08/19 07:46:50;;;;;;;5.17;1.90;;;;;;;29.16;38.99;100876.51;127290;1093;64128;-84
2021/08/19 07:49:20;;;;;;;2.80;1.93;;;;;;;29.16;39.12;100877.38;127189;1093;64134;-84
2021/08/19 07:51:50;;;;;;;3.60;2.13;;;;;;;29.16;39.14;100882.81;127199;1093;64128;-86
2021/08/19 07:54:17;;;;;;;4.00;2.50;;;;;;;29.16;38.67;100877.38;127302;1093;64163;-85
2021/08/19 07:56:44;;;;;;;3.20;2.00;;;;;;;29.17;39.07;100870.91;127316;1093;64163;-84
2021/08/19 07:59:10;;;;;;;4.20;2.05;;;;;;;29.17;38.72;100876.34;127294;1093;64170;-85
2021/08/19 08:01:37;;;;;;;4.80;2.10;;;;;;;29.17;38.71;100880.94;127263;1092;64288;-85
2021/08/19 08:04:06;;;;;;;4.37;2.03;;;;;;;29.17;38.40;100881.78;127303;1093;64135;-86
2021/08/19 08:06:33;;;;;;;4.40;2.17;;;;;;;29.17;38.89;100872.78;127307;1093;64208;-84
2021/08/19 08:08:59;;;;;;;3.27;2.10;;;;;;;29.17;38.55;100873.63;127323;1092;64134;-85
2021/08/19 08:11:28;;;;;;;4.40;2.30;;;;;;;29.17;38.45;100876.34;127287;1093;64137;-84
2021/08/19 08:13:54;;;;;;;3.43;1.90;;;;;;;29.17;38.38;100873.63;127268;1093;64107;-85
2021/08/19 08:16:21;;;;;;;4.17;2.10;;;;;;;29.17;38.52;100870.91;127296;1093;64242;-84
2021/08/19 08:18:58;;;;;;;3.70;2.20;;;;;;;29.18;38.74;100871.78;127248;1093;64272;-86
2021/08/19 08:21:24;;;;;;;3.73;2.20;;;;;;;29.17;38.54;100872.78;127290;1092;64237;-85
2021/08/19 08:24:03;;;;;;;3.40;2.20;;;;;;;29.16;38.45;100877.38;127228;1096;64211;-84
2021/08/19 08:26:34;;;;;;;6.13;2.40;;;;;;;29.16;38.48;100877.38;127210;1096;64363;-85
2021/08/19 08:29:00;;;;;;;4.50;2.30;;;;;;;29.16;38.79;100880.10;127172;1095;61866;-84
2021/08/19 08:31:26;;;;;;;4.10;2.00;;;;;;;29.17;38.72;100879.06;127196;1096;64094;-82
2021/08/19 08:33:53;;;;;;;3.70;2.20;;;;;;;29.17;38.32;100873.63;127245;1096;64160;-85
2021/08/19 08:36:19;;;;;;;5.23;2.40;;;;;;;29.17;38.44;100865.47;127186;1096;64355;-84
2021/08/19 08:38:46;;;;;;;3.40;2.20;;;;;;;29.18;38.34;100866.34;127195;1096;64098;-84
2021/08/19 08:41:20;;;;;;;3.77;2.30;;;;;;;29.18;38.27;100866.34;127095;1095;64134;-83
2021/08/19 08:43:48;;;;;;;4.87;2.30;;;;;;;29.19;38.19;100859.87;127222;1095;64212;-85
2021/08/19 08:46:15;;;;;;;3.97;2.30;;;;;;;29.18;38.37;100859.03;127147;1095;64158;-84
2021/08/19 08:48:43;;;;;;;4.00;2.20;;;;;;;29.18;38.28;100856.30;127228;1097;64314;-84
2021/08/19 08:51:09;;;;;;;3.70;2.10;;;;;;;29.19;38.69;100858.02;127263;1095;64141;-85
2021/08/19 08:53:37;;;;;;;3.43;2.20;;;;;;;29.20;38.44;100858.86;127185;1095;64192;-85
2021/08/19 08:56:03;;;;;;;3.40;2.23;;;;;;;29.19;38.59;100863.45;127320;1093;65011;-86
2021/08/19 08:58:30;;;;;;;2.60;1.80;;;;;;;29.20;38.66;100859.73;127250;1092;64281;-85
2021/08/19 09:01:04;;;;;;;3.23;2.03;;;;;;;29.21;38.73;100860.57;127261;1093;64186;-84
2021/08/19 09:03:31;;;;;;;3.93;2.27;;;;;;;29.20;38.48;100847.98;127237;1093;64138;-85
2021/08/19 09:05:57;;;;;;;2.83;2.00;;;;;;;29.21;38.27;100850.53;127287;1093;64106;-85
2021/08/19 09:08:27;;;;;;;4.67;2.10;;;;;;;29.20;38.04;100847.98;127284;1093;64133;-84
2021/08/19 09:10:59;;;;;;;3.20;1.93;;;;;;;29.21;38.40;100838.83;127267;1093;64134;-85
2021/08/19 09:13:29;;;;;;;4.00;2.10;;;;;;;29.20;38.34;100837.11;127251;1093;64237;-84
2021/08/19 09:16:12;;;;;;;3.97;2.20;;;;;;;29.21;38.09;100841.55;127257;1093;64159;-85
2021/08/19 09:18:41;;;;;;;3.93;2.00;;;;;;;29.22;37.93;100843.25;127205;1093;64102;-85
2021/08/19 09:21:21;;;;;;;4.90;2.23;;;;;;;29.21;38.07;100838.83;127155;1093;64211;-84
2021/08/19 09:24:30;;;;;;;4.50;2.10;;;;;;;29.22;38.20;100840.53;127226;1093;64307;-85
2021/08/19 09:27:11;;;;;;;4.47;2.17;;;;;;;29.21;38.21;100841.55;127172;1095;64243;-85
2021/08/19 09:29:37;;;;;;;3.83;2.20;;;;;;;29.20;37.76;100835.27;127143;1096;63018;-85
2021/08/19 09:32:15;;;;;;;3.73;2.20;;;;;;;29.20;38.08;100837.98;127092;1096;64102;-84
2021/08/19 09:34:47;;;;;;;4.30;2.20;;;;;;;29.20;38.02;100831.67;127249;1095;64314;-84
2021/08/19 09:37:18;;;;;;;4.00;2.20;;;;;;;29.21;37.86;100831.51;127158;1096;64105;-84
2021/08/19 09:40:05;;;;;;;3.70;2.10;;;;;;;29.21;37.76;100826.07;127176;1096;64141;-85
2021/08/19 09:42:38;;;;;;;3.70;2.13;;;;;;;29.21;37.76;100833.39;127133;1096;64245;-85
2021/08/19 09:45:21;;;;;;;4.10;2.20;;;;;;;29.20;37.49;100824.39;127124;1096;64639;-86
2021/08/19 09:47:48;;;;;;;4.60;2.30;;;;;;;29.20;37.76;100835.27;127095;1095;64186;-85
2021/08/19 09:50:23;;;;;;;4.17;2.27;;;;;;;29.19;37.35;100828.12;127096;1095;64105;-85
2021/08/19 09:52:50;;;;;;;3.03;2.00;;;;;;;29.19;37.74;100833.55;126961;1095;64221;-85
2021/08/19 09:55:21;;;;;;;4.93;2.43;;;;;;;29.19;37.37;100822.69;126914;1096;64163;-82
2021/08/19 09:57:48;;;;;;;3.27;2.30;;;;;;;29.20;37.72;100818.08;127111;1097;64179;-86
2021/08/19 10:00:27;;;;;;;4.13;2.40;;;;;;;29.20;37.78;100821.67;127089;1096;64173;-84
2021/08/19 10:02:54;;;;;;;3.33;2.23;;;;;;;29.20;37.73;100821.67;127184;1097;64138;-84
2021/08/19 10:05:20;;;;;;;3.57;2.33;;;;;;;29.21;37.39;100831.51;127246;1093;64739;-85
2021/08/19 10:07:46;;;;;;;3.80;2.17;;;;;;;29.22;37.23;100825.06;127296;1093;64102;-85
2021/08/19 10:10:36;;;;;;;3.40;2.30;;;;;;;29.22;37.54;100825.06;127328;1092;64288;-85
2021/08/19 10:13:03;;;;;;;3.83;2.40;;;;;;;29.22;37.43;100825.06;127190;1096;64191;-84
2021/08/19 10:15:42;;;;;;;4.40;2.10;;;;;;;29.22;36.98;100821.51;126952;1096;64297;-84
2021/08/19 10:18:12;;;;;;;5.83;2.23;;;;;;;29.22;37.17;100819.63;127095;1095;64607;-84
2021/08/19 10:20:40;;;;;;;3.47;2.10;;;;;;;29.24;37.19;100819.45;127206;1095;63921;-85
2021/08/19 10:23:07;;;;;;;3.90;2.13;;;;;;;29.23;36.96;100807.75;127161;1096;64141;-85
2021/08/19 10:25:39;;;;;;;4.57;2.43;;;;;;;29.24;36.97;100812.17;127174;1095;64108;-86
2021/08/19 10:28:18;;;;;;;5.23;2.37;;;;;;;29.24;37.01;100797.71;127144;1095;64355;-85
2021/08/19 10:30:58;;;;;;;4.10;2.30;;;;;;;29.24;36.96;100798.58;126965;1096;62932;-85
2021/08/19 10:33:39;;;;;;;4.10;2.55;;;;;;;29.24;37.06;100801.30;127249;1097;64237;-85
2021/08/19 10:36:11;;;;;;;4.15;2.20;;;;;;;29.25;36.95;100800.30;127250;1096;64079;-85
2021/08/19 10:38:41;;;;;;;5.67;2.13;;;;;;;29.25;36.71;100799.42;127246;1097;63961;-84
2021/08/19 10:41:52;;;;;;;5.60;2.20;;;;;;;29.26;36.54;100801.16;127173;1096;64114;-85
2021/08/19 10:44:18;;;;;;;4.77;2.07;;;;;;;29.26;36.65;100803.88;126949;1100;64241;-84
2021/08/19 10:46:46;;;;;;;5.87;2.43;;;;;;;29.26;36.65;100801.16;126406;1098;63998;-84
2021/08/19 10:49:32;;;;;;;5.07;2.37;;;;;;;29.26;36.71;100796.56;126503;1099;64176;-84
2021/08/19 10:52:07;;;;;;;5.20;2.10;;;;;;;29.26;36.39;100793.84;127107;1096;64294;-84
2021/08/19 10:54:41;;;;;;;3.53;2.03;;;;;;;29.27;36.22;100792.00;127049;1095;64173;-84
2021/08/19 10:57:30;;;;;;;4.13;2.00;;;;;;;29.27;36.24;100792.00;127076;1096;64170;-85
2021/08/19 11:00:09;;;;;;;5.13;2.33;;;;;;;29.27;36.47;100781.13;127128;1096;64179;-85
2021/08/19 11:02:40;;;;;;;5.00;2.23;;;;;;;29.28;36.52;100773.81;127122;1095;64200;-86
2021/08/19 11:05:26;;;;;;;5.33;2.40;;;;;;;29.28;36.50;100788.24;127200;1096;64379;-86
2021/08/19 11:07:56;;;;;;;3.93;2.30;;;;;;;29.28;36.03;100784.69;127106;1095;64176;-85
2021/08/19 11:10:27;;;;;;;3.70;2.20;;;;;;;29.27;36.13;100783.84;127181;1096;64324;-85
2021/08/19 11:13:01;;;;;;;4.27;2.30;;;;;;;29.28;36.33;100782.80;127203;1095;63923;-85
2021/08/19 11:15:29;;;;;;;6.43;2.20;;;;;;;29.27;36.07;100772.97;127177;1095;64214;-85
2021/08/19 11:17:57;;;;;;;5.00;2.40;;;;;;;29.28;36.20;100774.65;127154;1095;64241;-85
2021/08/19 11:20:34;;;;;;;5.20;2.20;;;;;;;29.28;36.07;100766.49;127182;1095;64186;-85
2021/08/19 11:23:08;;;;;;;6.73;2.17;;;;;;;29.29;36.00;100761.92;127346;1093;64297;-85
2021/08/19 11:25:36;;;;;;;4.23;2.30;;;;;;;29.29;35.96;100757.33;127411;1093;64105;-85
2021/08/19 11:28:19;;;;;;;5.80;2.40;;;;;;;29.29;35.71;100751.05;127447;1093;61874;-85